sensor_id;sensor_type;location;lat;lon;timestamp;pressure;altitude;pressure_sealevel;temperature;humidity
63582;BME280;49727;51.078;17.066;2023-03-17T00:04:37;100808.28;;;-0.49;54.35
63582;BME280;49727;51.078;17.066;2023-03-17T00:19:38;100808.88;;;-0.60;54.64
63582;BME280;49727;51.078;17.066;2023-03-17T00:34:39;100798.84;;;-0.68;54.77
63582;BME280;49727;51.078;17.066;2023-03-17T00:49:39;100794.00;;;-0.76;55.64
63582;BME280;49727;51.078;17.066;2023-03-17T01:04:40;100763.69;;;-0.80;56.02
63582;BME280;49727;51.078;17.066;2023-03-17T01:19:41;100730.97;;;-0.87;56.26
63582;BME280;49727;51.078;17.066;2023-03-17T01:34:42;100721.25;;;-0.85;56.66
63582;BME280;49727;51.078;17.066;2023-03-17T01:49:42;100717.81;;;-0.70;57.26
63582;BME280;49727;51.078;17.066;2023-03-17T02:04:44;100714.25;;;-0.69;57.15
63582;BME280;49727;51.078;17.066;2023-03-17T02:19:45;100697.19;;;-0.92;57.28
63582;BME280;49727;51.078;17.066;2023-03-17T02:34:46;100676.38;;;-1.09;58.45
63582;BME280;49727;51.078;17.066;2023-03-17T02:49:48;100692.34;;;-1.31;59.25
63582;BME280;49727;51.078;17.066;2023-03-17T03:04:48;100692.19;;;-1.28;59.75
63582;BME280;49727;51.078;17.066;2023-03-17T03:19:49;100678.53;;;-1.33;60.05
63582;BME280;49727;51.078;17.066;2023-03-17T03:34:49;100678.84;;;-1.40;60.70
63582;BME280;49727;51.078;17.066;2023-03-17T03:49:50;100657.25;;;-1.43;60.71
63582;BME280;49727;51.078;17.066;2023-03-17T04:04:50;100637.75;;;-1.54;61.63
63582;BME280;49727;51.078;17.066;2023-03-17T04:19:52;100647.56;;;-1.57;61.45
63582;BME280;49727;51.078;17.066;2023-03-17T04:34:52;100641.28;;;-1.71;62.31
63582;BME280;49727;51.078;17.066;2023-03-17T04:49:53;100639.75;;;-1.75;61.96
63582;BME280;49727;51.078;17.066;2023-03-17T05:04:53;100635.34;;;-1.74;61.87
63582;BME280;49727;51.078;17.066;2023-03-17T05:19:54;100640.78;;;-1.61;62.24
63582;BME280;49727;51.078;17.066;2023-03-17T05:34:55;100627.00;;;-1.31;63.30
63582;BME280;49727;51.078;17.066;2023-03-17T05:49:56;100638.31;;;-0.83;62.71
63582;BME280;49727;51.078;17.066;2023-03-17T06:04:56;100636.88;;;0.03;62.32
63582;BME280;49727;51.078;17.066;2023-03-17T06:19:57;100642.84;;;0.91;61.02
63582;BME280;49727;51.078;17.066;2023-03-17T06:34:57;100640.75;;;1.65;59.65
63582;BME280;49727;51.078;17.066;2023-03-17T06:49:57;100627.34;;;2.34;58.75
63582;BME280;49727;51.078;17.066;2023-03-17T07:04:58;100615.25;;;3.19;56.56
63582;BME280;49727;51.078;17.066;2023-03-17T07:19:59;100620.41;;;3.92;53.61
63582;BME280;49727;51.078;17.066;2023-03-17T07:35:00;100623.72;;;4.29;52.97
63582;BME280;49727;51.078;17.066;2023-03-17T07:50:00;100619.28;;;5.19;51.86
63582;BME280;49727;51.078;17.066;2023-03-17T08:05:01;100612.97;;;5.85;48.14
63582;BME280;49727;51.078;17.066;2023-03-17T08:20:02;100596.16;;;6.69;47.12
63582;BME280;49727;51.078;17.066;2023-03-17T08:35:04;100576.91;;;8.04;45.55
63582;BME280;49727;51.078;17.066;2023-03-17T08:50:08;100553.66;;;9.35;42.11
63582;BME280;49727;51.078;17.066;2023-03-17T09:05:11;100580.34;;;10.48;38.29
63582;BME280;49727;51.078;17.066;2023-03-17T09:20:13;100571.22;;;16.91;29.98
63582;BME280;49727;51.078;17.066;2023-03-17T09:35:13;100581.19;;;22.22;22.61
63582;BME280;49727;51.078;17.066;2023-03-17T09:50:31;100563.25;;;23.99;18.52
63582;BME280;49727;51.078;17.066;2023-03-17T10:05:35;100552.00;;;27.29;16.38
63582;BME280;49727;51.078;17.066;2023-03-17T10:20:41;100550.56;;;22.91;17.60
63582;BME280;49727;51.078;17.066;2023-03-17T10:35:43;100540.53;;;25.75;15.17
63582;BME280;49727;51.078;17.066;2023-03-17T10:50:45;100538.88;;;31.49;11.67
63582;BME280;49727;51.078;17.066;2023-03-17T11:06:18;100496.94;;;33.09;10.76
63582;BME280;49727;51.078;17.066;2023-03-17T11:21:29;100451.75;;;30.79;10.38
63582;BME280;49727;51.078;17.066;2023-03-17T12:07:18;100393.84;;;28.62;11.86
63582;BME280;49727;51.078;17.066;2023-03-17T12:22:27;100366.03;;;27.29;12.23
63582;BME280;49727;51.078;17.066;2023-03-17T12:37:31;100329.75;;;29.84;11.27
63582;BME280;49727;51.078;17.066;2023-03-17T13:07:50;100315.03;;;31.91;10.09
63582;BME280;49727;51.078;17.066;2023-03-17T13:53:26;100311.28;;;25.44;13.24
63582;BME280;49727;51.078;17.066;2023-03-17T14:08:41;100304.63;;;22.33;15.05
63582;BME280;49727;51.078;17.066;2023-03-17T14:23:51;100267.78;;;18.29;19.12
63582;BME280;49727;51.078;17.066;2023-03-17T14:38:54;100246.06;;;16.01;21.61
63582;BME280;49727;51.078;17.066;2023-03-17T14:54:11;100239.47;;;14.15;23.27
63582;BME280;49727;51.078;17.066;2023-03-17T15:09:36;100225.63;;;13.16;25.62
63582;BME280;49727;51.078;17.066;2023-03-17T15:24:38;100201.53;;;12.27;26.81
63582;BME280;49727;51.078;17.066;2023-03-17T15:39:39;100200.59;;;11.73;28.55
63582;BME280;49727;51.078;17.066;2023-03-17T15:54:40;100198.84;;;11.26;29.28
63582;BME280;49727;51.078;17.066;2023-03-17T16:09:40;100200.56;;;10.79;30.40
63582;BME280;49727;51.078;17.066;2023-03-17T16:24:40;100187.97;;;10.23;31.87
63582;BME280;49727;51.078;17.066;2023-03-17T16:39:41;100191.63;;;9.73;33.23
63582;BME280;49727;51.078;17.066;2023-03-17T16:54:42;100198.19;;;9.27;34.39
63582;BME280;49727;51.078;17.066;2023-03-17T17:09:42;100189.22;;;8.86;35.61
63582;BME280;49727;51.078;17.066;2023-03-17T17:24:43;100205.66;;;8.55;36.97
63582;BME280;49727;51.078;17.066;2023-03-17T17:39:43;100212.03;;;8.18;38.67
63582;BME280;49727;51.078;17.066;2023-03-17T17:54:43;100210.16;;;7.74;40.20
63582;BME280;49727;51.078;17.066;2023-03-17T18:09:44;100205.47;;;7.22;40.99
63582;BME280;49727;51.078;17.066;2023-03-17T18:24:46;100195.16;;;6.91;42.29
63582;BME280;49727;51.078;17.066;2023-03-17T18:39:46;100191.13;;;6.59;43.05
63582;BME280;49727;51.078;17.066;2023-03-17T18:54:47;100186.59;;;6.32;43.75
63582;BME280;49727;51.078;17.066;2023-03-17T19:09:47;100195.94;;;6.06;44.47
63582;BME280;49727;51.078;17.066;2023-03-17T19:24:49;100195.50;;;5.82;45.05
63582;BME280;49727;51.078;17.066;2023-03-17T19:39:50;100192.16;;;5.60;45.91
63582;BME280;49727;51.078;17.066;2023-03-17T19:54:50;100190.47;;;5.39;46.62
63582;BME280;49727;51.078;17.066;2023-03-17T20:09:51;100192.19;;;5.09;46.74
63582;BME280;49727;51.078;17.066;2023-03-17T20:24:53;100174.91;;;4.86;47.39
63582;BME280;49727;51.078;17.066;2023-03-17T20:39:53;100168.41;;;4.59;47.84
63582;BME280;49727;51.078;17.066;2023-03-17T20:54:58;100166.50;;;4.40;48.38
63582;BME280;49727;51.078;17.066;2023-03-17T21:09:59;100160.81;;;4.14;48.74
63582;BME280;49727;51.078;17.066;2023-03-17T21:25:04;100146.03;;;4.01;48.73
63582;BME280;49727;51.078;17.066;2023-03-17T21:40:07;100130.97;;;3.92;49.01
63582;BME280;49727;51.078;17.066;2023-03-17T21:55:10;100132.25;;;3.77;49.18
63582;BME280;49727;51.078;17.066;2023-03-17T22:10:11;100118.56;;;3.62;49.86
63582;BME280;49727;51.078;17.066;2023-03-17T22:25:12;100121.13;;;3.52;49.95
63582;BME280;49727;51.078;17.066;2023-03-17T22:40:13;100114.72;;;3.33;50.37
63582;BME280;49727;51.078;17.066;2023-03-17T22:55:13;100093.97;;;3.19;50.88
63582;BME280;49727;51.078;17.066;2023-03-17T23:10:16;100097.47;;;3.08;50.75
63582;BME280;49727;51.078;17.066;2023-03-17T23:25:17;100095.22;;;2.92;51.27
63582;BME280;49727;51.078;17.066;2023-03-17T23:40:18;100094.78;;;2.76;51.10
63582;BME280;49727;51.078;17.066;2023-03-17T23:55:19;100084.75;;;2.69;51.60
